sensor_id;sensor_type;location;lat;lon;timestamp;P1;durP1;ratioP1;P2;durP2;ratioP2
26474;SDS011;14161;52.270;10.334;2023-03-31T00:01:36;4.90;;;1.30;;
26474;SDS011;14161;52.270;10.334;2023-03-31T00:04:09;3.00;;;1.27;;
26474;SDS011;14161;52.270;10.334;2023-03-31T00:06:37;3.10;;;1.33;;
26474;SDS011;14161;52.270;10.334;2023-03-31T00:09:14;3.88;;;1.27;;
26474;SDS011;14161;52.270;10.334;2023-03-31T00:11:43;1.13;;;1.00;;
26474;SDS011;14161;52.270;10.334;2023-03-31T00:14:09;5.20;;;1.52;;
26474;SDS011;14161;52.270;10.334;2023-03-31T00:16:35;3.45;;;0.90;;
26474;SDS011;14161;52.270;10.334;2023-03-31T00:19:01;2.97;;;1.27;;
26474;SDS011;14161;52.270;10.334;2023-03-31T00:21:27;3.33;;;1.00;;
26474;SDS011;14161;52.270;10.334;2023-03-31T00:24:01;2.15;;;0.90;;
26474;SDS011;14161;52.270;10.334;2023-03-31T00:26:29;4.72;;;0.90;;
26474;SDS011;14161;52.270;10.334;2023-03-31T00:28:55;6.25;;;1.35;;
26474;SDS011;14161;52.270;10.334;2023-03-31T00:31:21;2.67;;;1.25;;
26474;SDS011;14161;52.270;10.334;2023-03-31T00:33:47;2.15;;;1.05;;
26474;SDS011;14161;52.270;10.334;2023-03-31T00:36:12;3.45;;;1.60;;
26474;SDS011;14161;52.270;10.334;2023-03-31T00:38:41;3.55;;;1.08;;
26474;SDS011;14161;52.270;10.334;2023-03-31T00:41:10;2.83;;;1.10;;
26474;SDS011;14161;52.270;10.334;2023-03-31T00:43:36;3.15;;;1.17;;
26474;SDS011;14161;52.270;10.334;2023-03-31T00:48:31;4.68;;;1.27;;
26474;SDS011;14161;52.270;10.334;2023-03-31T00:50:57;3.90;;;1.40;;
26474;SDS011;14161;52.270;10.334;2023-03-31T00:53:24;2.72;;;1.00;;
26474;SDS011;14161;52.270;10.334;2023-03-31T00:55:52;2.28;;;1.10;;
26474;SDS011;14161;52.270;10.334;2023-03-31T00:58:19;3.83;;;1.02;;
26474;SDS011;14161;52.270;10.334;2023-03-31T01:00:46;2.38;;;1.15;;
26474;SDS011;14161;52.270;10.334;2023-03-31T01:03:13;2.55;;;1.00;;
26474;SDS011;14161;52.270;10.334;2023-03-31T01:05:41;1.65;;;0.85;;
26474;SDS011;14161;52.270;10.334;2023-03-31T01:08:09;2.85;;;1.00;;
26474;SDS011;14161;52.270;10.334;2023-03-31T01:10:36;2.72;;;0.88;;
26474;SDS011;14161;52.270;10.334;2023-03-31T01:13:07;1.25;;;0.60;;
26474;SDS011;14161;52.270;10.334;2023-03-31T01:15:34;5.20;;;1.23;;
26474;SDS011;14161;52.270;10.334;2023-03-31T01:18:00;3.30;;;1.00;;
26474;SDS011;14161;52.270;10.334;2023-03-31T01:36:30;3.72;;;1.05;;
26474;SDS011;14161;52.270;10.334;2023-03-31T01:41:56;3.63;;;0.93;;
26474;SDS011;14161;52.270;10.334;2023-03-31T01:50:03;2.90;;;1.00;;
26474;SDS011;14161;52.270;10.334;2023-03-31T01:55:01;4.20;;;1.00;;
26474;SDS011;14161;52.270;10.334;2023-03-31T01:57:34;2.90;;;0.90;;
26474;SDS011;14161;52.270;10.334;2023-03-31T02:05:26;2.47;;;1.10;;
26474;SDS011;14161;52.270;10.334;2023-03-31T02:07:57;2.55;;;1.00;;
26474;SDS011;14161;52.270;10.334;2023-03-31T02:10:28;2.42;;;1.08;;
26474;SDS011;14161;52.270;10.334;2023-03-31T02:12:56;1.67;;;0.65;;
26474;SDS011;14161;52.270;10.334;2023-03-31T02:15:25;3.50;;;1.10;;
26474;SDS011;14161;52.270;10.334;2023-03-31T02:17:56;1.42;;;0.77;;
26474;SDS011;14161;52.270;10.334;2023-03-31T02:20:23;2.05;;;0.75;;
26474;SDS011;14161;52.270;10.334;2023-03-31T02:22:52;5.40;;;1.20;;
26474;SDS011;14161;52.270;10.334;2023-03-31T02:25:19;3.63;;;0.90;;
26474;SDS011;14161;52.270;10.334;2023-03-31T02:27:55;1.65;;;0.80;;
26474;SDS011;14161;52.270;10.334;2023-03-31T02:30:29;2.00;;;0.60;;
26474;SDS011;14161;52.270;10.334;2023-03-31T02:33:10;4.38;;;1.15;;
26474;SDS011;14161;52.270;10.334;2023-03-31T02:35:35;2.47;;;0.70;;
26474;SDS011;14161;52.270;10.334;2023-03-31T02:38:01;2.95;;;0.80;;
26474;SDS011;14161;52.270;10.334;2023-03-31T02:40:28;3.70;;;0.77;;
26474;SDS011;14161;52.270;10.334;2023-03-31T02:42:54;3.20;;;1.15;;
26474;SDS011;14161;52.270;10.334;2023-03-31T02:48:12;3.40;;;1.35;;
26474;SDS011;14161;52.270;10.334;2023-03-31T02:53:30;2.38;;;0.85;;
26474;SDS011;14161;52.270;10.334;2023-03-31T02:56:03;1.58;;;0.60;;
26474;SDS011;14161;52.270;10.334;2023-03-31T03:15:40;1.70;;;0.80;;
26474;SDS011;14161;52.270;10.334;2023-03-31T03:18:10;2.67;;;1.00;;
26474;SDS011;14161;52.270;10.334;2023-03-31T03:20:36;1.38;;;0.82;;
26474;SDS011;14161;52.270;10.334;2023-03-31T03:23:03;3.85;;;0.80;;
26474;SDS011;14161;52.270;10.334;2023-03-31T03:25:28;4.32;;;0.93;;
26474;SDS011;14161;52.270;10.334;2023-03-31T03:27:54;3.25;;;0.80;;
26474;SDS011;14161;52.270;10.334;2023-03-31T03:30:19;2.00;;;0.93;;
26474;SDS011;14161;52.270;10.334;2023-03-31T03:32:45;2.47;;;0.80;;
26474;SDS011;14161;52.270;10.334;2023-03-31T03:35:11;2.03;;;0.98;;
26474;SDS011;14161;52.270;10.334;2023-03-31T03:37:36;2.45;;;1.20;;
26474;SDS011;14161;52.270;10.334;2023-03-31T03:40:02;2.15;;;1.13;;
26474;SDS011;14161;52.270;10.334;2023-03-31T03:42:30;1.85;;;0.88;;
26474;SDS011;14161;52.270;10.334;2023-03-31T03:44:56;4.20;;;1.20;;
26474;SDS011;14161;52.270;10.334;2023-03-31T03:47:21;2.08;;;0.80;;
26474;SDS011;14161;52.270;10.334;2023-03-31T03:49:47;4.70;;;1.25;;
26474;SDS011;14161;52.270;10.334;2023-03-31T03:52:13;2.03;;;0.73;;
26474;SDS011;14161;52.270;10.334;2023-03-31T03:54:39;5.43;;;1.27;;
26474;SDS011;14161;52.270;10.334;2023-03-31T03:57:05;3.67;;;1.15;;
26474;SDS011;14161;52.270;10.334;2023-03-31T03:59:31;2.20;;;1.05;;
26474;SDS011;14161;52.270;10.334;2023-03-31T04:01:56;2.75;;;0.93;;
26474;SDS011;14161;52.270;10.334;2023-03-31T04:04:22;1.77;;;0.82;;
26474;SDS011;14161;52.270;10.334;2023-03-31T04:06:47;2.38;;;0.70;;
26474;SDS011;14161;52.270;10.334;2023-03-31T04:09:13;2.65;;;0.90;;
26474;SDS011;14161;52.270;10.334;2023-03-31T04:11:38;1.95;;;0.63;;
26474;SDS011;14161;52.270;10.334;2023-03-31T04:14:04;2.40;;;0.80;;
26474;SDS011;14161;52.270;10.334;2023-03-31T04:16:29;2.33;;;0.90;;
26474;SDS011;14161;52.270;10.334;2023-03-31T04:18:56;2.78;;;0.73;;
26474;SDS011;14161;52.270;10.334;2023-03-31T04:21:23;2.55;;;0.60;;
26474;SDS011;14161;52.270;10.334;2023-03-31T04:23:52;2.90;;;0.90;;
26474;SDS011;14161;52.270;10.334;2023-03-31T04:26:29;2.80;;;0.80;;
26474;SDS011;14161;52.270;10.334;2023-03-31T04:31:29;2.17;;;0.93;;
26474;SDS011;14161;52.270;10.334;2023-03-31T04:33:54;1.17;;;0.60;;
26474;SDS011;14161;52.270;10.334;2023-03-31T04:36:26;3.65;;;1.02;;
26474;SDS011;14161;52.270;10.334;2023-03-31T04:38:53;1.80;;;0.93;;
26474;SDS011;14161;52.270;10.334;2023-03-31T04:41:22;2.53;;;0.80;;
26474;SDS011;14161;52.270;10.334;2023-03-31T04:43:48;2.35;;;0.85;;
26474;SDS011;14161;52.270;10.334;2023-03-31T04:46:14;3.72;;;1.17;;
26474;SDS011;14161;52.270;10.334;2023-03-31T04:48:39;2.22;;;0.82;;
26474;SDS011;14161;52.270;10.334;2023-03-31T04:51:05;2.83;;;1.00;;
26474;SDS011;14161;52.270;10.334;2023-03-31T04:53:30;1.42;;;0.55;;
26474;SDS011;14161;52.270;10.334;2023-03-31T04:55:56;4.20;;;1.05;;
26474;SDS011;14161;52.270;10.334;2023-03-31T04:58:21;3.85;;;1.25;;
26474;SDS011;14161;52.270;10.334;2023-03-31T05:00:47;2.88;;;0.88;;
26474;SDS011;14161;52.270;10.334;2023-03-31T05:03:12;5.10;;;1.35;;
26474;SDS011;14161;52.270;10.334;2023-03-31T05:05:38;3.13;;;1.10;;
26474;SDS011;14161;52.270;10.334;2023-03-31T05:08:03;3.38;;;1.05;;
26474;SDS011;14161;52.270;10.334;2023-03-31T05:10:29;3.75;;;0.98;;
26474;SDS011;14161;52.270;10.334;2023-03-31T05:12:54;4.50;;;1.15;;
26474;SDS011;14161;52.270;10.334;2023-03-31T05:15:20;3.45;;;1.10;;
26474;SDS011;14161;52.270;10.334;2023-03-31T05:17:45;2.70;;;0.95;;
26474;SDS011;14161;52.270;10.334;2023-03-31T05:20:11;3.17;;;1.00;;
26474;SDS011;14161;52.270;10.334;2023-03-31T05:22:37;2.33;;;1.17;;
26474;SDS011;14161;52.270;10.334;2023-03-31T05:25:04;3.80;;;0.98;;
26474;SDS011;14161;52.270;10.334;2023-03-31T05:27:31;2.55;;;1.10;;
26474;SDS011;14161;52.270;10.334;2023-03-31T05:29:57;2.47;;;1.00;;
26474;SDS011;14161;52.270;10.334;2023-03-31T05:32:23;3.55;;;1.30;;
26474;SDS011;14161;52.270;10.334;2023-03-31T05:34:49;3.22;;;1.02;;
26474;SDS011;14161;52.270;10.334;2023-03-31T05:37:17;2.05;;;0.85;;
26474;SDS011;14161;52.270;10.334;2023-03-31T05:39:42;3.75;;;1.15;;
26474;SDS011;14161;52.270;10.334;2023-03-31T05:42:08;2.65;;;1.05;;
26474;SDS011;14161;52.270;10.334;2023-03-31T05:44:33;2.45;;;0.85;;
26474;SDS011;14161;52.270;10.334;2023-03-31T05:46:59;2.30;;;0.90;;
26474;SDS011;14161;52.270;10.334;2023-03-31T05:49:25;4.88;;;0.85;;
26474;SDS011;14161;52.270;10.334;2023-03-31T05:51:50;2.38;;;1.00;;
26474;SDS011;14161;52.270;10.334;2023-03-31T05:54:17;2.67;;;0.90;;
26474;SDS011;14161;52.270;10.334;2023-03-31T05:56:43;2.50;;;0.80;;
26474;SDS011;14161;52.270;10.334;2023-03-31T05:59:08;2.95;;;0.75;;
26474;SDS011;14161;52.270;10.334;2023-03-31T06:01:34;3.63;;;0.75;;
26474;SDS011;14161;52.270;10.334;2023-03-31T06:03:59;6.85;;;1.20;;
26474;SDS011;14161;52.270;10.334;2023-03-31T06:06:24;2.45;;;0.85;;
26474;SDS011;14161;52.270;10.334;2023-03-31T06:08:51;2.45;;;0.90;;
26474;SDS011;14161;52.270;10.334;2023-03-31T06:11:18;2.05;;;0.85;;
26474;SDS011;14161;52.270;10.334;2023-03-31T06:13:45;2.30;;;0.57;;
26474;SDS011;14161;52.270;10.334;2023-03-31T06:16:12;5.20;;;1.00;;
26474;SDS011;14161;52.270;10.334;2023-03-31T06:18:38;2.15;;;1.05;;
26474;SDS011;14161;52.270;10.334;2023-03-31T06:21:07;2.85;;;1.08;;
26474;SDS011;14161;52.270;10.334;2023-03-31T06:23:35;3.05;;;0.82;;
26474;SDS011;14161;52.270;10.334;2023-03-31T06:26:02;1.08;;;0.55;;
26474;SDS011;14161;52.270;10.334;2023-03-31T06:28:30;2.15;;;0.80;;
26474;SDS011;14161;52.270;10.334;2023-03-31T06:30:59;3.95;;;1.00;;
26474;SDS011;14161;52.270;10.334;2023-03-31T06:33:28;2.78;;;1.15;;
26474;SDS011;14161;52.270;10.334;2023-03-31T06:35:55;4.03;;;1.20;;
26474;SDS011;14161;52.270;10.334;2023-03-31T06:38:21;2.95;;;1.05;;
26474;SDS011;14161;52.270;10.334;2023-03-31T06:40:47;1.15;;;0.68;;
26474;SDS011;14161;52.270;10.334;2023-03-31T06:43:12;1.20;;;0.68;;
26474;SDS011;14161;52.270;10.334;2023-03-31T06:45:38;3.60;;;0.95;;
26474;SDS011;14161;52.270;10.334;2023-03-31T06:48:03;3.25;;;0.75;;
26474;SDS011;14161;52.270;10.334;2023-03-31T06:50:29;2.05;;;0.82;;
26474;SDS011;14161;52.270;10.334;2023-03-31T06:52:55;2.97;;;1.00;;
26474;SDS011;14161;52.270;10.334;2023-03-31T06:55:22;3.28;;;1.27;;
26474;SDS011;14161;52.270;10.334;2023-03-31T06:57:47;1.67;;;0.70;;
26474;SDS011;14161;52.270;10.334;2023-03-31T07:00:13;4.13;;;0.82;;
26474;SDS011;14161;52.270;10.334;2023-03-31T07:02:39;2.10;;;0.85;;
26474;SDS011;14161;52.270;10.334;2023-03-31T07:05:04;2.05;;;0.73;;
26474;SDS011;14161;52.270;10.334;2023-03-31T07:07:31;1.95;;;1.00;;
26474;SDS011;14161;52.270;10.334;2023-03-31T07:09:57;1.35;;;0.90;;
26474;SDS011;14161;52.270;10.334;2023-03-31T07:12:22;3.17;;;0.98;;
26474;SDS011;14161;52.270;10.334;2023-03-31T07:14:49;4.75;;;1.02;;
26474;SDS011;14161;52.270;10.334;2023-03-31T07:17:16;1.10;;;0.70;;
26474;SDS011;14161;52.270;10.334;2023-03-31T07:19:46;2.90;;;0.82;;
26474;SDS011;14161;52.270;10.334;2023-03-31T07:22:16;3.63;;;0.85;;
26474;SDS011;14161;52.270;10.334;2023-03-31T07:24:43;3.33;;;0.90;;
26474;SDS011;14161;52.270;10.334;2023-03-31T07:27:10;3.75;;;1.42;;
26474;SDS011;14161;52.270;10.334;2023-03-31T07:29:36;2.78;;;0.90;;
26474;SDS011;14161;52.270;10.334;2023-03-31T07:32:02;2.92;;;0.88;;
26474;SDS011;14161;52.270;10.334;2023-03-31T07:34:28;4.38;;;1.30;;
26474;SDS011;14161;52.270;10.334;2023-03-31T07:36:54;1.17;;;0.80;;
26474;SDS011;14161;52.270;10.334;2023-03-31T07:39:21;2.13;;;1.10;;
26474;SDS011;14161;52.270;10.334;2023-03-31T07:41:47;3.35;;;1.35;;
26474;SDS011;14161;52.270;10.334;2023-03-31T07:44:16;3.60;;;1.20;;
26474;SDS011;14161;52.270;10.334;2023-03-31T07:46:44;3.08;;;1.20;;
26474;SDS011;14161;52.270;10.334;2023-03-31T07:49:10;3.70;;;1.45;;
26474;SDS011;14161;52.270;10.334;2023-03-31T07:51:40;5.05;;;2.00;;
26474;SDS011;14161;52.270;10.334;2023-03-31T07:54:05;5.30;;;1.88;;
26474;SDS011;14161;52.270;10.334;2023-03-31T07:56:31;2.55;;;1.05;;
26474;SDS011;14161;52.270;10.334;2023-03-31T07:58:56;3.35;;;1.30;;
26474;SDS011;14161;52.270;10.334;2023-03-31T08:01:22;2.08;;;1.10;;
26474;SDS011;14161;52.270;10.334;2023-03-31T08:03:50;3.13;;;1.20;;
26474;SDS011;14161;52.270;10.334;2023-03-31T08:06:21;4.32;;;1.20;;
26474;SDS011;14161;52.270;10.334;2023-03-31T08:08:48;2.75;;;1.02;;
26474;SDS011;14161;52.270;10.334;2023-03-31T08:11:14;2.53;;;1.05;;
26474;SDS011;14161;52.270;10.334;2023-03-31T08:13:40;3.90;;;2.13;;
26474;SDS011;14161;52.270;10.334;2023-03-31T08:16:06;3.28;;;1.40;;
26474;SDS011;14161;52.270;10.334;2023-03-31T08:18:33;2.72;;;1.45;;
26474;SDS011;14161;52.270;10.334;2023-03-31T08:20:59;2.00;;;0.88;;
26474;SDS011;14161;52.270;10.334;2023-03-31T08:23:25;2.47;;;1.10;;
26474;SDS011;14161;52.270;10.334;2023-03-31T08:25:50;4.82;;;1.40;;
26474;SDS011;14161;52.270;10.334;2023-03-31T08:28:16;4.95;;;1.35;;
26474;SDS011;14161;52.270;10.334;2023-03-31T08:30:41;3.30;;;0.90;;
26474;SDS011;14161;52.270;10.334;2023-03-31T08:33:07;4.03;;;0.90;;
26474;SDS011;14161;52.270;10.334;2023-03-31T08:35:36;3.03;;;1.00;;
26474;SDS011;14161;52.270;10.334;2023-03-31T08:38:02;3.15;;;1.05;;
26474;SDS011;14161;52.270;10.334;2023-03-31T08:40:29;4.35;;;0.90;;
26474;SDS011;14161;52.270;10.334;2023-03-31T08:42:56;2.05;;;1.00;;
26474;SDS011;14161;52.270;10.334;2023-03-31T08:45:34;3.85;;;1.10;;
26474;SDS011;14161;52.270;10.334;2023-03-31T08:55:33;2.58;;;0.98;;
26474;SDS011;14161;52.270;10.334;2023-03-31T08:58:08;4.07;;;1.00;;
26474;SDS011;14161;52.270;10.334;2023-03-31T09:00:45;3.55;;;1.02;;
26474;SDS011;14161;52.270;10.334;2023-03-31T09:06:27;2.70;;;1.10;;
26474;SDS011;14161;52.270;10.334;2023-03-31T09:09:30;1.88;;;0.73;;
26474;SDS011;14161;52.270;10.334;2023-03-31T09:12:09;3.85;;;1.40;;
26474;SDS011;14161;52.270;10.334;2023-03-31T09:14:40;2.80;;;0.90;;
26474;SDS011;14161;52.270;10.334;2023-03-31T09:17:22;2.50;;;1.25;;
26474;SDS011;14161;52.270;10.334;2023-03-31T09:19:59;3.75;;;1.08;;
26474;SDS011;14161;52.270;10.334;2023-03-31T09:22:33;6.55;;;1.35;;
26474;SDS011;14161;52.270;10.334;2023-03-31T09:27:55;3.38;;;1.30;;
26474;SDS011;14161;52.270;10.334;2023-03-31T09:30:26;4.50;;;0.95;;
26474;SDS011;14161;52.270;10.334;2023-03-31T09:33:01;3.70;;;1.20;;
26474;SDS011;14161;52.270;10.334;2023-03-31T09:35:35;4.10;;;1.00;;
26474;SDS011;14161;52.270;10.334;2023-03-31T09:38:00;3.92;;;1.63;;
26474;SDS011;14161;52.270;10.334;2023-03-31T09:40:26;3.95;;;1.60;;
26474;SDS011;14161;52.270;10.334;2023-03-31T09:43:16;4.03;;;1.52;;
26474;SDS011;14161;52.270;10.334;2023-03-31T09:45:48;4.25;;;1.33;;
26474;SDS011;14161;52.270;10.334;2023-03-31T09:48:15;2.97;;;1.10;;
26474;SDS011;14161;52.270;10.334;2023-03-31T09:50:44;4.60;;;1.10;;
26474;SDS011;14161;52.270;10.334;2023-03-31T09:53:17;1.80;;;0.95;;
26474;SDS011;14161;52.270;10.334;2023-03-31T09:55:49;1.80;;;0.90;;
26474;SDS011;14161;52.270;10.334;2023-03-31T09:58:17;4.78;;;1.38;;
26474;SDS011;14161;52.270;10.334;2023-03-31T10:00:58;4.13;;;1.25;;
26474;SDS011;14161;52.270;10.334;2023-03-31T10:03:25;3.67;;;1.17;;
26474;SDS011;14161;52.270;10.334;2023-03-31T10:05:53;2.67;;;1.38;;
26474;SDS011;14161;52.270;10.334;2023-03-31T10:08:30;3.15;;;1.10;;
26474;SDS011;14161;52.270;10.334;2023-03-31T10:11:06;2.38;;;1.27;;
26474;SDS011;14161;52.270;10.334;2023-03-31T10:13:34;3.00;;;1.00;;
26474;SDS011;14161;52.270;10.334;2023-03-31T10:16:02;5.25;;;1.17;;
26474;SDS011;14161;52.270;10.334;2023-03-31T10:18:36;2.90;;;1.25;;
26474;SDS011;14161;52.270;10.334;2023-03-31T10:21:26;3.75;;;1.00;;
26474;SDS011;14161;52.270;10.334;2023-03-31T10:23:53;2.33;;;1.10;;
26474;SDS011;14161;52.270;10.334;2023-03-31T10:26:24;2.95;;;0.90;;
26474;SDS011;14161;52.270;10.334;2023-03-31T10:28:51;1.60;;;0.77;;
26474;SDS011;14161;52.270;10.334;2023-03-31T10:31:19;1.63;;;0.70;;
26474;SDS011;14161;52.270;10.334;2023-03-31T10:33:49;3.13;;;1.23;;
26474;SDS011;14161;52.270;10.334;2023-03-31T10:36:18;5.38;;;1.00;;
26474;SDS011;14161;52.270;10.334;2023-03-31T10:38:45;3.80;;;1.13;;
26474;SDS011;14161;52.270;10.334;2023-03-31T10:41:12;3.60;;;1.27;;
26474;SDS011;14161;52.270;10.334;2023-03-31T10:43:51;1.60;;;0.85;;
26474;SDS011;14161;52.270;10.334;2023-03-31T10:46:18;3.65;;;1.20;;
26474;SDS011;14161;52.270;10.334;2023-03-31T10:48:44;3.55;;;1.10;;
26474;SDS011;14161;52.270;10.334;2023-03-31T10:51:20;1.88;;;1.08;;
26474;SDS011;14161;52.270;10.334;2023-03-31T10:53:51;2.30;;;1.15;;
26474;SDS011;14161;52.270;10.334;2023-03-31T11:01:29;6.00;;;0.82;;
26474;SDS011;14161;52.270;10.334;2023-03-31T11:12:58;3.20;;;0.77;;
26474;SDS011;14161;52.270;10.334;2023-03-31T11:16:13;4.60;;;1.20;;
26474;SDS011;14161;52.270;10.334;2023-03-31T11:18:39;3.70;;;1.27;;
26474;SDS011;14161;52.270;10.334;2023-03-31T11:24:25;2.88;;;0.93;;
26474;SDS011;14161;52.270;10.334;2023-03-31T11:30:27;5.88;;;1.30;;
26474;SDS011;14161;52.270;10.334;2023-03-31T11:36:00;1.38;;;0.80;;
26474;SDS011;14161;52.270;10.334;2023-03-31T11:41:20;2.50;;;0.70;;
26474;SDS011;14161;52.270;10.334;2023-03-31T11:43:52;2.05;;;0.80;;
26474;SDS011;14161;52.270;10.334;2023-03-31T11:48:49;2.75;;;1.50;;
26474;SDS011;14161;52.270;10.334;2023-03-31T11:51:18;1.23;;;0.77;;
26474;SDS011;14161;52.270;10.334;2023-03-31T11:53:46;1.35;;;0.80;;
26474;SDS011;14161;52.270;10.334;2023-03-31T11:56:12;1.60;;;0.82;;
26474;SDS011;14161;52.270;10.334;2023-03-31T11:58:52;2.38;;;0.82;;
26474;SDS011;14161;52.270;10.334;2023-03-31T12:06:42;1.52;;;0.80;;
26474;SDS011;14161;52.270;10.334;2023-03-31T12:12:14;2.33;;;0.68;;
26474;SDS011;14161;52.270;10.334;2023-03-31T12:14:51;1.60;;;0.90;;
26474;SDS011;14161;52.270;10.334;2023-03-31T12:17:19;1.20;;;0.50;;
26474;SDS011;14161;52.270;10.334;2023-03-31T12:19:57;0.50;;;0.50;;
26474;SDS011;14161;52.270;10.334;2023-03-31T12:22:31;0.52;;;0.50;;
26474;SDS011;14161;52.270;10.334;2023-03-31T12:24:58;0.88;;;0.60;;
26474;SDS011;14161;52.270;10.334;2023-03-31T12:27:25;1.08;;;0.60;;
26474;SDS011;14161;52.270;10.334;2023-03-31T12:30:14;0.75;;;0.60;;
26474;SDS011;14161;52.270;10.334;2023-03-31T12:32:46;1.08;;;0.50;;
26474;SDS011;14161;52.270;10.334;2023-03-31T12:35:19;1.83;;;0.73;;
26474;SDS011;14161;52.270;10.334;2023-03-31T12:48:54;0.85;;;0.63;;
26474;SDS011;14161;52.270;10.334;2023-03-31T13:02:10;1.05;;;0.57;;
26474;SDS011;14161;52.270;10.334;2023-03-31T13:04:43;0.70;;;0.50;;
26474;SDS011;14161;52.270;10.334;2023-03-31T13:07:12;1.27;;;0.70;;
26474;SDS011;14161;52.270;10.334;2023-03-31T13:12:38;1.80;;;1.00;;
26474;SDS011;14161;52.270;10.334;2023-03-31T13:15:03;1.30;;;0.75;;
26474;SDS011;14161;52.270;10.334;2023-03-31T13:17:34;2.08;;;0.70;;
26474;SDS011;14161;52.270;10.334;2023-03-31T13:22:46;1.50;;;0.73;;
26474;SDS011;14161;52.270;10.334;2023-03-31T13:25:25;0.90;;;0.60;;
26474;SDS011;14161;52.270;10.334;2023-03-31T13:27:51;1.40;;;0.70;;
26474;SDS011;14161;52.270;10.334;2023-03-31T13:33:02;2.38;;;0.70;;
26474;SDS011;14161;52.270;10.334;2023-03-31T13:35:29;2.67;;;1.00;;
26474;SDS011;14161;52.270;10.334;2023-03-31T13:38:42;2.00;;;0.73;;
26474;SDS011;14161;52.270;10.334;2023-03-31T13:47:01;1.70;;;0.60;;
26474;SDS011;14161;52.270;10.334;2023-03-31T14:03:16;1.83;;;0.80;;
26474;SDS011;14161;52.270;10.334;2023-03-31T14:08:38;4.82;;;0.52;;
26474;SDS011;14161;52.270;10.334;2023-03-31T14:11:23;1.67;;;0.75;;
26474;SDS011;14161;52.270;10.334;2023-03-31T14:13:57;2.35;;;0.75;;
26474;SDS011;14161;52.270;10.334;2023-03-31T14:16:25;0.75;;;0.70;;
26474;SDS011;14161;52.270;10.334;2023-03-31T14:18:52;1.30;;;0.50;;
26474;SDS011;14161;52.270;10.334;2023-03-31T14:21:28;1.38;;;0.63;;
26474;SDS011;14161;52.270;10.334;2023-03-31T14:24:07;1.30;;;0.77;;
26474;SDS011;14161;52.270;10.334;2023-03-31T14:27:01;1.70;;;1.02;;
26474;SDS011;14161;52.270;10.334;2023-03-31T14:29:35;2.08;;;0.82;;
26474;SDS011;14161;52.270;10.334;2023-03-31T14:37:41;1.80;;;0.90;;
26474;SDS011;14161;52.270;10.334;2023-03-31T14:40:09;3.42;;;1.10;;
26474;SDS011;14161;52.270;10.334;2023-03-31T14:42:38;2.08;;;0.90;;
26474;SDS011;14161;52.270;10.334;2023-03-31T14:45:37;2.55;;;1.30;;
26474;SDS011;14161;52.270;10.334;2023-03-31T14:48:19;5.43;;;2.47;;
26474;SDS011;14161;52.270;10.334;2023-03-31T14:50:45;4.18;;;1.40;;
26474;SDS011;14161;52.270;10.334;2023-03-31T14:53:18;2.28;;;1.20;;
26474;SDS011;14161;52.270;10.334;2023-03-31T14:55:47;1.15;;;0.75;;
26474;SDS011;14161;52.270;10.334;2023-03-31T14:58:22;5.20;;;2.90;;
26474;SDS011;14161;52.270;10.334;2023-03-31T15:00:59;4.05;;;2.00;;
26474;SDS011;14161;52.270;10.334;2023-03-31T15:03:26;5.15;;;1.70;;
26474;SDS011;14161;52.270;10.334;2023-03-31T15:05:55;3.25;;;1.25;;
26474;SDS011;14161;52.270;10.334;2023-03-31T15:08:22;2.35;;;1.10;;
26474;SDS011;14161;52.270;10.334;2023-03-31T15:10:52;2.80;;;0.88;;
26474;SDS011;14161;52.270;10.334;2023-03-31T15:13:21;6.15;;;1.13;;
26474;SDS011;14161;52.270;10.334;2023-03-31T15:15:58;1.50;;;0.80;;
26474;SDS011;14161;52.270;10.334;2023-03-31T15:18:24;1.92;;;0.80;;
26474;SDS011;14161;52.270;10.334;2023-03-31T15:20:51;2.63;;;0.77;;
26474;SDS011;14161;52.270;10.334;2023-03-31T15:23:21;0.77;;;0.60;;
26474;SDS011;14161;52.270;10.334;2023-03-31T15:25:55;2.72;;;1.00;;
26474;SDS011;14161;52.270;10.334;2023-03-31T15:28:22;1.95;;;0.80;;
26474;SDS011;14161;52.270;10.334;2023-03-31T15:30:51;2.47;;;0.90;;
26474;SDS011;14161;52.270;10.334;2023-03-31T15:33:18;3.00;;;1.20;;
26474;SDS011;14161;52.270;10.334;2023-03-31T15:35:55;2.50;;;1.35;;
26474;SDS011;14161;52.270;10.334;2023-03-31T15:38:21;2.15;;;0.90;;
26474;SDS011;14161;52.270;10.334;2023-03-31T15:40:51;3.08;;;1.08;;
26474;SDS011;14161;52.270;10.334;2023-03-31T15:46:24;2.75;;;0.70;;
26474;SDS011;14161;52.270;10.334;2023-03-31T15:49:20;1.58;;;0.70;;
26474;SDS011;14161;52.270;10.334;2023-03-31T15:51:46;2.42;;;0.90;;
26474;SDS011;14161;52.270;10.334;2023-03-31T15:56:59;1.45;;;1.00;;
26474;SDS011;14161;52.270;10.334;2023-03-31T15:59:26;4.18;;;0.80;;
26474;SDS011;14161;52.270;10.334;2023-03-31T16:01:53;1.83;;;0.88;;
26474;SDS011;14161;52.270;10.334;2023-03-31T16:04:20;2.67;;;0.70;;
26474;SDS011;14161;52.270;10.334;2023-03-31T16:06:46;2.25;;;0.93;;
26474;SDS011;14161;52.270;10.334;2023-03-31T16:09:18;3.17;;;0.90;;
26474;SDS011;14161;52.270;10.334;2023-03-31T16:11:51;1.30;;;0.80;;
26474;SDS011;14161;52.270;10.334;2023-03-31T16:14:20;1.17;;;0.57;;
26474;SDS011;14161;52.270;10.334;2023-03-31T16:16:50;0.55;;;0.50;;
26474;SDS011;14161;52.270;10.334;2023-03-31T16:19:17;0.88;;;0.47;;
26474;SDS011;14161;52.270;10.334;2023-03-31T16:21:46;1.42;;;0.77;;
26474;SDS011;14161;52.270;10.334;2023-03-31T16:24:16;1.50;;;0.60;;
26474;SDS011;14161;52.270;10.334;2023-03-31T16:26:43;3.10;;;0.68;;
26474;SDS011;14161;52.270;10.334;2023-03-31T16:29:09;1.35;;;0.70;;
26474;SDS011;14161;52.270;10.334;2023-03-31T16:31:43;2.25;;;0.70;;
26474;SDS011;14161;52.270;10.334;2023-03-31T16:34:09;3.38;;;0.90;;
26474;SDS011;14161;52.270;10.334;2023-03-31T16:36:35;3.40;;;0.80;;
26474;SDS011;14161;52.270;10.334;2023-03-31T16:39:01;3.08;;;0.60;;
26474;SDS011;14161;52.270;10.334;2023-03-31T16:41:29;3.05;;;1.02;;
26474;SDS011;14161;52.270;10.334;2023-03-31T16:43:56;3.55;;;0.60;;
26474;SDS011;14161;52.270;10.334;2023-03-31T16:46:21;2.38;;;1.00;;
26474;SDS011;14161;52.270;10.334;2023-03-31T16:48:47;2.17;;;0.80;;
26474;SDS011;14161;52.270;10.334;2023-03-31T16:51:13;1.58;;;0.80;;
26474;SDS011;14161;52.270;10.334;2023-03-31T16:53:38;1.95;;;0.80;;
26474;SDS011;14161;52.270;10.334;2023-03-31T16:56:05;1.52;;;0.80;;
26474;SDS011;14161;52.270;10.334;2023-03-31T16:58:34;1.40;;;0.90;;
26474;SDS011;14161;52.270;10.334;2023-03-31T17:01:00;2.40;;;0.85;;
26474;SDS011;14161;52.270;10.334;2023-03-31T17:03:26;2.03;;;0.68;;
26474;SDS011;14161;52.270;10.334;2023-03-31T17:05:55;2.28;;;0.82;;
26474;SDS011;14161;52.270;10.334;2023-03-31T17:08:22;2.72;;;0.80;;
26474;SDS011;14161;52.270;10.334;2023-03-31T17:10:50;3.38;;;1.00;;
26474;SDS011;14161;52.270;10.334;2023-03-31T17:13:17;1.88;;;0.75;;
26474;SDS011;14161;52.270;10.334;2023-03-31T17:15:43;2.75;;;0.88;;
26474;SDS011;14161;52.270;10.334;2023-03-31T17:18:08;2.75;;;0.80;;
26474;SDS011;14161;52.270;10.334;2023-03-31T17:20:34;1.30;;;0.88;;
26474;SDS011;14161;52.270;10.334;2023-03-31T17:22:59;4.63;;;2.20;;
26474;SDS011;14161;52.270;10.334;2023-03-31T17:25:25;5.60;;;2.70;;
26474;SDS011;14161;52.270;10.334;2023-03-31T17:27:50;4.65;;;2.72;;
26474;SDS011;14161;52.270;10.334;2023-03-31T17:30:16;6.47;;;3.60;;
26474;SDS011;14161;52.270;10.334;2023-03-31T17:32:41;6.20;;;3.40;;
26474;SDS011;14161;52.270;10.334;2023-03-31T17:35:07;4.72;;;3.40;;
26474;SDS011;14161;52.270;10.334;2023-03-31T17:37:34;3.83;;;2.85;;
26474;SDS011;14161;52.270;10.334;2023-03-31T17:40:00;3.90;;;2.22;;